createdAt,value
2018-06-04T00:00:50.043Z,94
2018-06-04T00:01:52.050Z,94
2018-06-04T00:02:54.050Z,94
2018-06-04T00:03:56.046Z,94
2018-06-04T00:04:58.052Z,94
2018-06-04T00:06:00.054Z,94
2018-06-04T00:07:02.453Z,94
2018-06-04T00:08:04.451Z,94
2018-06-04T00:09:06.438Z,95
2018-06-04T00:10:08.442Z,94
2018-06-04T00:11:10.433Z,94
2018-06-04T00:12:12.817Z,94
2018-06-04T00:13:14.824Z,94
2018-06-04T00:14:16.826Z,94
2018-06-04T00:15:18.821Z,94
2018-06-04T00:16:21.113Z,94
2018-06-04T00:17:23.106Z,94
2018-06-04T00:18:25.506Z,94
2018-06-04T00:19:27.492Z,94
2018-06-04T00:20:29.498Z,94
2018-06-04T00:21:31.504Z,94
2018-06-04T00:22:33.501Z,95
2018-06-04T00:23:35.509Z,95
2018-06-04T00:24:37.497Z,95
2018-06-04T00:25:39.787Z,95
2018-06-04T00:26:41.787Z,95
2018-06-04T00:27:44.051Z,95
2018-06-04T00:28:46.349Z,95
2018-06-04T00:29:48.351Z,95
2018-06-04T00:30:50.347Z,95
2018-06-04T00:31:52.349Z,95
2018-06-04T00:32:54.642Z,95
2018-06-04T00:33:56.643Z,95
2018-06-04T00:34:58.934Z,95
2018-06-04T00:36:00.933Z,95
2018-06-04T00:37:02.938Z,95
2018-06-04T00:38:04.930Z,95
2018-06-04T00:39:06.929Z,95
2018-06-04T00:40:08.927Z,95
2018-06-04T00:41:10.929Z,95
2018-06-04T00:42:12.928Z,95
2018-06-04T00:43:14.926Z,95
2018-06-04T00:44:16.917Z,95
2018-06-04T00:45:18.910Z,95
2018-06-04T00:46:20.909Z,95
2018-06-04T00:47:22.909Z,95
2018-06-04T00:48:24.903Z,95
2018-06-04T00:49:26.902Z,95
2018-06-04T00:50:28.910Z,95
2018-06-04T00:51:30.902Z,95
2018-06-04T00:52:32.904Z,95
2018-06-04T00:53:34.905Z,95
2018-06-04T00:54:36.897Z,95
2018-06-04T00:55:38.902Z,95
2018-06-04T00:56:40.895Z,95
2018-06-04T00:57:42.898Z,95
2018-06-04T00:58:44.894Z,95
2018-06-04T00:59:46.887Z,95
2018-06-04T01:00:49.675Z,95
2018-06-04T01:01:51.674Z,95
2018-06-04T01:02:53.672Z,95
2018-06-04T01:03:55.958Z,95
2018-06-04T01:04:57.954Z,95
2018-06-04T01:05:59.955Z,95
2018-06-04T01:07:01.945Z,95
2018-06-04T01:08:04.249Z,95
2018-06-04T01:09:06.625Z,95
2018-06-04T01:10:08.626Z,95
2018-06-04T01:11:10.624Z,95
2018-06-04T01:12:12.626Z,95
2018-06-04T01:13:14.631Z,95
2018-06-04T01:14:16.927Z,95
2018-06-04T01:15:18.913Z,95
2018-06-04T01:16:20.928Z,95
2018-06-04T01:17:23.211Z,95
2018-06-04T01:18:25.595Z,95
2018-06-04T01:19:28.173Z,95
2018-06-04T01:20:30.456Z,95
2018-06-04T01:21:33.034Z,95
2018-06-04T01:22:35.035Z,95
2018-06-04T01:23:37.030Z,95
2018-06-04T01:24:39.040Z,95
2018-06-04T01:25:41.035Z,95
2018-06-04T01:26:43.043Z,95
2018-06-04T01:27:45.041Z,95
2018-06-04T01:28:47.041Z,95
2018-06-04T01:29:49.041Z,95
2018-06-04T01:30:51.417Z,95
2018-06-04T01:31:53.421Z,95
2018-06-04T01:32:55.707Z,95
2018-06-04T01:33:57.692Z,95
2018-06-04T01:35:00.365Z,95
2018-06-04T01:36:02.662Z,95
2018-06-04T01:37:04.650Z,96
2018-06-04T01:38:06.931Z,95
2018-06-04T01:39:08.937Z,95
2018-06-04T01:40:10.939Z,95
2018-06-04T01:41:12.951Z,95
2018-06-04T01:42:14.937Z,95
2018-06-04T01:43:16.938Z,95
2018-06-04T01:44:19.311Z,95
2018-06-04T01:45:21.309Z,95
2018-06-04T01:46:23.293Z,95
2018-06-04T01:47:25.680Z,95
2018-06-04T01:48:27.687Z,95
2018-06-04T01:49:29.683Z,95
2018-06-04T01:50:31.675Z,95
2018-06-04T01:51:33.667Z,95
2018-06-04T01:52:35.668Z,95
2018-06-04T01:53:37.671Z,95
2018-06-04T01:54:39.666Z,95
2018-06-04T01:55:41.679Z,95
2018-06-04T01:56:43.672Z,95
2018-06-04T01:57:45.658Z,95
2018-06-04T01:58:48.507Z,95
2018-06-04T01:59:50.507Z,95
2018-06-04T02:00:52.510Z,95
2018-06-04T02:01:54.508Z,95
2018-06-04T02:02:56.900Z,96
2018-06-04T02:03:59.289Z,95
2018-06-04T02:05:01.556Z,95
2018-06-04T02:06:03.561Z,95
2018-06-04T02:07:05.574Z,95
2018-06-04T02:08:07.568Z,95
2018-06-04T02:09:09.571Z,95
2018-06-04T02:10:11.848Z,95
2018-06-04T02:11:13.846Z,95
2018-06-04T02:12:16.515Z,96
2018-06-04T02:13:18.782Z,95
2018-06-04T02:14:21.068Z,95
2018-06-04T02:15:23.362Z,95
2018-06-04T02:16:25.350Z,95
2018-06-04T02:17:27.356Z,95
2018-06-04T02:18:29.913Z,96
2018-06-04T02:19:32.201Z,95
2018-06-04T02:20:34.195Z,95
2018-06-04T02:21:36.198Z,95
2018-06-04T02:22:38.197Z,95
2018-06-04T02:23:40.197Z,95
2018-06-04T02:24:42.476Z,95
2018-06-04T02:25:44.477Z,95
2018-06-04T02:26:46.471Z,95
2018-06-04T02:27:48.469Z,95
2018-06-04T02:28:50.474Z,95
2018-06-04T02:29:52.482Z,95
2018-06-04T02:30:55.054Z,95
2018-06-04T02:31:57.332Z,95
2018-06-04T02:32:59.328Z,96
2018-06-04T02:34:01.321Z,96
2018-06-04T02:35:03.603Z,96
2018-06-04T02:36:05.992Z,96
2018-06-04T02:37:08.293Z,95
2018-06-04T02:38:10.553Z,96
2018-06-04T02:39:12.833Z,96
2018-06-04T02:40:15.139Z,96
2018-06-04T02:41:17.144Z,96
2018-06-04T02:42:19.134Z,96
2018-06-04T02:43:21.544Z,95
2018-06-04T02:44:23.833Z,96
2018-06-04T02:45:26.498Z,96
2018-06-04T02:46:28.509Z,95
2018-06-04T02:47:30.800Z,96
2018-06-04T02:48:33.459Z,96
2018-06-04T02:49:35.830Z,96
2018-06-04T02:50:37.826Z,96
2018-06-04T02:51:40.504Z,96
2018-06-04T02:52:42.495Z,95
2018-06-04T02:53:44.779Z,96
2018-06-04T02:54:46.776Z,96
2018-06-04T02:55:49.066Z,96
2018-06-04T02:56:51.438Z,95
2018-06-04T02:57:53.818Z,95
2018-06-04T02:58:55.825Z,96
2018-06-04T02:59:57.827Z,95
2018-06-04T03:01:00.215Z,95
2018-06-04T03:02:02.491Z,95
2018-06-04T03:03:04.799Z,96
2018-06-04T03:04:06.791Z,95
2018-06-04T03:05:09.078Z,96
2018-06-04T03:06:11.395Z,96
2018-06-04T03:07:13.669Z,95
2018-06-04T03:08:15.665Z,96
2018-06-04T03:09:17.669Z,96
2018-06-04T03:10:19.956Z,96
2018-06-04T03:11:21.966Z,96
2018-06-04T03:12:24.259Z,96
2018-06-04T03:13:26.257Z,96
2018-06-04T03:14:28.300Z,96
2018-06-04T03:15:30.248Z,96
2018-06-04T03:16:32.247Z,96
2018-06-04T03:17:34.532Z,96
2018-06-04T03:18:36.517Z,96
2018-06-04T03:19:38.529Z,96
2018-06-04T03:20:40.512Z,96
2018-06-04T03:21:42.521Z,96
2018-06-04T03:22:44.518Z,96
2018-06-04T03:23:46.517Z,96
2018-06-04T03:24:48.514Z,96
2018-06-04T03:25:50.510Z,96
2018-06-04T03:26:52.499Z,96
2018-06-04T03:27:54.516Z,96
2018-06-04T03:28:56.886Z,96
2018-06-04T03:29:58.889Z,96
2018-06-04T03:31:01.450Z,97
2018-06-04T03:32:04.113Z,96
2018-06-04T03:33:06.411Z,96
2018-06-04T03:34:08.699Z,96
2018-06-04T03:35:10.700Z,96
2018-06-04T03:36:12.704Z,96
2018-06-04T03:37:14.685Z,96
2018-06-04T03:38:16.689Z,96
2018-06-04T03:39:18.964Z,96
2018-06-04T03:40:20.960Z,97
2018-06-04T03:41:22.960Z,96
2018-06-04T03:42:24.958Z,96
2018-06-04T03:43:26.961Z,96
2018-06-04T03:44:28.952Z,96
2018-06-04T03:45:30.943Z,96
2018-06-04T03:46:32.958Z,96
2018-06-04T03:47:35.225Z,96
2018-06-04T03:48:37.224Z,96
2018-06-04T03:49:40.179Z,96
2018-06-04T03:50:42.176Z,96
2018-06-04T03:51:44.175Z,96
2018-06-04T03:52:46.168Z,96
2018-06-04T03:53:48.162Z,96
2018-06-04T03:54:50.551Z,96
2018-06-04T03:55:52.548Z,96
2018-06-04T03:56:54.546Z,96
2018-06-04T03:57:56.543Z,96
2018-06-04T03:58:58.535Z,96
2018-06-04T04:00:00.529Z,96
2018-06-04T04:01:02.537Z,96
2018-06-04T04:02:04.529Z,97
2018-06-04T04:03:06.525Z,96
2018-06-04T04:04:08.519Z,96
2018-06-04T04:05:10.509Z,96
2018-06-04T04:06:12.509Z,96
2018-06-04T04:07:14.499Z,96
2018-06-04T04:08:16.534Z,96
2018-06-04T04:09:18.508Z,96
2018-06-04T04:10:20.489Z,96
2018-06-04T04:11:22.485Z,96
2018-06-04T04:12:24.487Z,96
2018-06-04T04:13:26.484Z,96
2018-06-04T04:14:28.492Z,96
2018-06-04T04:15:30.481Z,96
2018-06-04T04:16:32.480Z,96
2018-06-04T04:17:34.485Z,96
2018-06-04T04:18:36.479Z,96
2018-06-04T04:19:38.459Z,96
2018-06-04T04:20:40.468Z,96
2018-06-04T04:21:42.463Z,96
2018-06-04T04:22:44.458Z,96
2018-06-04T04:23:46.835Z,96
2018-06-04T04:24:48.833Z,95
2018-06-04T04:25:50.839Z,95
2018-06-04T04:26:52.828Z,95
2018-06-04T04:27:55.220Z,95
2018-06-04T04:28:57.223Z,96
2018-06-04T04:29:59.207Z,96
2018-06-04T04:31:01.201Z,95
2018-06-04T04:32:03.485Z,95
2018-06-04T04:33:05.485Z,95
2018-06-04T04:34:07.476Z,95
2018-06-04T04:35:09.473Z,95
2018-06-04T04:36:11.480Z,95
2018-06-04T04:37:13.481Z,95
2018-06-04T04:38:15.482Z,94
2018-06-04T04:39:18.061Z,94
2018-06-04T04:40:20.055Z,94
2018-06-04T04:41:22.068Z,94
2018-06-04T04:42:24.058Z,94
2018-06-04T04:43:26.339Z,94
2018-06-04T04:44:28.339Z,94
2018-06-04T04:45:30.339Z,94
2018-06-04T04:46:32.332Z,94
2018-06-04T04:47:34.325Z,94
2018-06-04T04:48:36.331Z,94
2018-06-04T04:49:38.327Z,95
2018-06-04T04:50:40.309Z,94
2018-06-04T04:51:42.594Z,93
2018-06-04T04:52:44.593Z,94
2018-06-04T04:53:46.590Z,93
2018-06-04T04:54:48.584Z,93
2018-06-04T04:55:50.579Z,93
2018-06-04T04:56:52.570Z,93
2018-06-04T04:57:54.866Z,93
2018-06-04T04:58:57.426Z,93
2018-06-04T04:59:59.690Z,92
2018-06-04T05:01:02.084Z,92
2018-06-04T05:02:04.380Z,93
2018-06-04T05:03:06.379Z,93
2018-06-04T05:04:08.670Z,93
2018-06-04T05:05:10.673Z,92
2018-06-04T05:06:12.670Z,92
2018-06-04T05:07:14.663Z,93
2018-06-04T05:08:16.659Z,93
2018-06-04T05:09:19.053Z,92
2018-06-04T05:10:21.048Z,92
2018-06-04T05:11:23.038Z,92
2018-06-04T05:12:25.040Z,92
2018-06-04T05:13:27.033Z,92
2018-06-04T05:14:29.034Z,91
2018-06-04T05:15:31.688Z,91
2018-06-04T05:16:33.687Z,91
2018-06-04T05:17:35.680Z,91
2018-06-04T05:18:37.958Z,91
2018-06-04T05:19:39.955Z,91
2018-06-04T05:20:42.338Z,91
2018-06-04T05:21:44.349Z,91
2018-06-04T05:22:46.341Z,91
2018-06-04T05:23:48.348Z,91
2018-06-04T05:24:50.343Z,90
2018-06-04T05:25:52.341Z,90
2018-06-04T05:26:54.349Z,91
2018-06-04T05:27:56.346Z,91
2018-06-04T05:28:58.351Z,90
2018-06-04T05:30:00.350Z,91
2018-06-04T05:31:02.618Z,91
2018-06-04T05:32:04.907Z,91
2018-06-04T05:33:07.206Z,90
2018-06-04T05:34:09.207Z,89
2018-06-04T05:35:11.205Z,90
2018-06-04T05:36:13.204Z,91
2018-06-04T05:37:15.202Z,91
2018-06-04T05:38:17.202Z,90
2018-06-04T05:39:19.208Z,91
2018-06-04T05:40:21.492Z,90
2018-06-04T05:41:23.502Z,90
2018-06-04T05:42:25.616Z,90
2018-06-04T05:43:27.492Z,88
2018-06-04T05:44:29.781Z,89
2018-06-04T05:45:32.062Z,89
2018-06-04T05:46:34.726Z,88
2018-06-04T05:47:36.719Z,88
2018-06-04T05:48:38.711Z,89
2018-06-04T05:49:40.716Z,88
2018-06-04T05:50:42.710Z,88
2018-06-04T05:51:44.708Z,88
2018-06-04T05:52:46.706Z,88
2018-06-04T05:53:48.990Z,88
2018-06-04T05:54:51.262Z,88
2018-06-04T05:55:53.260Z,89
2018-06-04T05:56:55.266Z,88
2018-06-04T05:57:57.265Z,87
2018-06-04T05:58:59.257Z,88
2018-06-04T06:00:01.256Z,87
2018-06-04T06:01:03.258Z,87
2018-06-04T06:02:05.554Z,88
2018-06-04T06:03:07.558Z,87
2018-06-04T06:04:09.839Z,87
2018-06-04T06:05:11.838Z,88
2018-06-04T06:06:13.827Z,87
2018-06-04T06:07:16.109Z,86
2018-06-04T06:08:18.112Z,87
2018-06-04T06:09:20.494Z,87
2018-06-04T06:10:22.486Z,87
2018-06-04T06:11:24.876Z,88
2018-06-04T06:12:27.160Z,86
2018-06-04T06:13:29.151Z,86
2018-06-04T06:14:31.155Z,86
2018-06-04T06:15:33.451Z,86
2018-06-04T06:16:36.124Z,87
2018-06-04T06:17:38.119Z,87
2018-06-04T06:18:40.123Z,87
2018-06-04T06:19:42.413Z,87
2018-06-04T06:20:44.737Z,86
2018-06-04T06:21:46.739Z,87
2018-06-04T06:22:48.757Z,86
2018-06-04T06:23:51.032Z,86
2018-06-04T06:24:53.024Z,86
2018-06-04T06:25:55.303Z,85
2018-06-04T06:26:57.298Z,85
2018-06-04T06:27:59.294Z,85
2018-06-04T06:29:01.287Z,86
2018-06-04T06:30:03.618Z,84
2018-06-04T06:31:05.615Z,84
2018-06-04T06:32:07.614Z,84
2018-06-04T06:33:09.612Z,84
2018-06-04T06:34:11.607Z,85
2018-06-04T06:35:13.610Z,84
2018-06-04T06:36:15.612Z,83
2018-06-04T06:37:17.615Z,84
2018-06-04T06:38:19.630Z,83
2018-06-04T06:39:21.621Z,84
2018-06-04T06:40:23.632Z,84
2018-06-04T06:41:25.630Z,83
2018-06-04T06:42:27.643Z,83
2018-06-04T06:43:29.632Z,83
2018-06-04T06:44:31.623Z,83
2018-06-04T06:45:33.951Z,84
2018-06-04T06:46:35.996Z,83
2018-06-04T06:47:38.050Z,83
2018-06-04T06:48:40.102Z,84
2018-06-04T06:49:42.194Z,83
2018-06-04T06:50:44.234Z,83
2018-06-04T06:51:46.330Z,83
2018-06-04T06:52:48.377Z,83
2018-06-04T06:53:50.467Z,83
2018-06-04T06:54:52.518Z,83
2018-06-04T06:55:54.619Z,83
2018-06-04T06:56:56.956Z,82
2018-06-04T06:57:59.002Z,83
2018-06-04T06:59:01.038Z,84
2018-06-04T07:00:03.742Z,83
2018-06-04T07:01:05.853Z,83
2018-06-04T07:02:08.008Z,82
2018-06-04T07:03:10.032Z,82
2018-06-04T07:04:12.078Z,83
2018-06-04T07:05:14.161Z,83
2018-06-04T07:06:16.235Z,84
2018-06-04T07:07:18.405Z,82
2018-06-04T07:08:20.448Z,83
2018-06-04T07:09:22.493Z,82
2018-06-04T07:10:24.538Z,82
2018-06-04T07:11:26.647Z,82
2018-06-04T07:12:28.706Z,82
2018-06-04T07:13:30.821Z,82
2018-06-04T07:14:33.244Z,81
2018-06-04T07:15:35.292Z,82
2018-06-04T07:16:37.342Z,82
2018-06-04T07:17:39.383Z,81
2018-06-04T07:18:41.426Z,81
2018-06-04T07:19:43.475Z,80
2018-06-04T07:20:45.512Z,80
2018-06-04T07:21:47.547Z,81
2018-06-04T07:22:50.282Z,80
2018-06-04T07:23:52.615Z,80
2018-06-04T07:24:54.657Z,80
2018-06-04T07:25:56.698Z,80
2018-06-04T07:26:58.717Z,80
2018-06-04T07:28:00.715Z,81
2018-06-04T07:29:02.708Z,81
2018-06-04T07:30:05.006Z,80
2018-06-04T07:31:06.998Z,80
2018-06-04T07:32:09.387Z,79
2018-06-04T07:33:11.394Z,79
2018-06-04T07:34:13.682Z,79
2018-06-04T07:35:15.682Z,79
2018-06-04T07:36:17.679Z,79
2018-06-04T07:37:19.965Z,79
2018-06-04T07:38:21.973Z,80
2018-06-04T07:39:23.988Z,80
2018-06-04T07:40:26.012Z,80
2018-06-04T07:41:28.284Z,79
2018-06-04T07:42:30.286Z,80
2018-06-04T07:43:33.447Z,80
2018-06-04T07:44:35.626Z,79
2018-06-04T07:45:38.358Z,79
2018-06-04T07:46:41.196Z,80
2018-06-04T07:47:43.301Z,79
2018-06-04T07:48:49.859Z,79
2018-06-04T07:49:52.492Z,79
2018-06-04T07:50:54.474Z,80
2018-06-04T07:51:56.469Z,78
2018-06-04T07:52:58.475Z,78
2018-06-04T07:54:00.513Z,80
2018-06-04T07:55:02.504Z,79
2018-06-04T07:56:04.818Z,78
2018-06-04T07:57:06.814Z,78
2018-06-04T07:58:09.103Z,77
2018-06-04T07:59:11.115Z,78
2018-06-04T08:00:13.401Z,79
2018-06-04T08:01:15.402Z,79
2018-06-04T08:02:17.406Z,78
2018-06-04T08:03:19.410Z,78
2018-06-04T08:04:21.458Z,79
2018-06-04T08:05:23.425Z,78
2018-06-04T08:06:25.706Z,78
2018-06-04T08:07:28.024Z,78
2018-06-04T08:08:30.021Z,78
2018-06-04T08:09:32.017Z,78
2018-06-04T08:10:34.018Z,79
2018-06-04T08:11:36.025Z,79
2018-06-04T08:12:38.031Z,79
2018-06-04T08:13:40.032Z,78
2018-06-04T08:14:42.036Z,78
2018-06-04T08:15:44.048Z,79
2018-06-04T08:16:46.038Z,80
2018-06-04T08:17:48.046Z,80
2018-06-04T08:18:50.043Z,79
2018-06-04T08:19:52.634Z,78
2018-06-04T08:20:54.635Z,79
2018-06-04T08:21:58.737Z,79
2018-06-04T08:23:01.027Z,77
2018-06-04T08:24:03.039Z,79
2018-06-04T08:25:05.308Z,77
2018-06-04T08:26:07.317Z,77
2018-06-04T08:27:09.305Z,77
2018-06-04T08:28:11.314Z,77
2018-06-04T08:29:13.320Z,77
2018-06-04T08:30:15.318Z,77
2018-06-04T08:31:17.335Z,77
2018-06-04T08:32:19.325Z,77
2018-06-04T08:33:21.916Z,78
2018-06-04T08:34:24.197Z,76
2018-06-04T08:35:26.184Z,78
2018-06-04T08:36:28.194Z,77
2018-06-04T08:37:30.196Z,77
2018-06-04T08:38:32.287Z,77
2018-06-04T08:39:34.585Z,78
2018-06-04T08:40:36.588Z,79
2018-06-04T08:41:38.588Z,79
2018-06-04T08:42:40.595Z,80
2018-06-04T08:43:42.641Z,79
2018-06-04T08:44:44.582Z,79
2018-06-04T08:45:47.054Z,78
2018-06-04T08:46:49.007Z,77
2018-06-04T08:47:51.012Z,77
2018-06-04T08:48:53.014Z,78
2018-06-04T08:49:55.022Z,79
2018-06-04T08:50:57.503Z,78
2018-06-04T08:51:59.468Z,77
2018-06-04T08:53:01.465Z,78
2018-06-04T08:54:03.477Z,78
2018-06-04T08:55:05.470Z,78
2018-06-04T08:56:07.463Z,78
2018-06-04T08:57:09.460Z,79
2018-06-04T08:58:11.851Z,79
2018-06-04T08:59:13.846Z,79
2018-06-04T09:00:15.847Z,78
2018-06-04T09:01:18.161Z,79
2018-06-04T09:02:20.158Z,78
2018-06-04T09:03:22.161Z,79
2018-06-04T09:04:24.545Z,80
2018-06-04T09:05:26.540Z,79
2018-06-04T09:06:28.558Z,79
2018-06-04T09:07:30.546Z,79
2018-06-04T09:08:32.552Z,80
2018-06-04T09:09:34.555Z,80
2018-06-04T09:10:36.561Z,78
2018-06-04T09:11:38.555Z,79
2018-06-04T09:12:40.555Z,79
2018-06-04T09:13:42.558Z,79
2018-06-04T09:14:44.559Z,79
2018-06-04T09:15:46.637Z,80
2018-06-04T09:16:48.926Z,79
2018-06-04T09:17:51.243Z,79
2018-06-04T09:18:53.566Z,79
2018-06-04T09:19:55.618Z,78
2018-06-04T09:20:57.663Z,78
2018-06-04T09:21:59.735Z,77
2018-06-04T09:23:01.765Z,78
2018-06-04T09:24:04.096Z,78
2018-06-04T09:25:06.893Z,77
2018-06-04T09:26:08.936Z,77
2018-06-04T09:27:10.971Z,77
2018-06-04T09:28:13.028Z,77
2018-06-04T09:29:15.092Z,77
2018-06-04T09:30:17.144Z,77
2018-06-04T09:31:19.181Z,78
2018-06-04T09:32:21.713Z,79
2018-06-04T09:33:24.065Z,78
2018-06-04T09:34:26.115Z,77
2018-06-04T09:35:28.188Z,78
2018-06-04T09:36:30.222Z,78
2018-06-04T09:37:32.268Z,78
2018-06-04T09:38:34.705Z,78
2018-06-04T09:39:36.745Z,78
2018-06-04T09:40:38.781Z,80
2018-06-04T09:41:41.660Z,78
2018-06-04T09:42:45.683Z,77
2018-06-04T09:43:48.940Z,78
2018-06-04T09:44:51.074Z,77
2018-06-04T09:45:53.402Z,78
2018-06-04T09:46:55.451Z,79
2018-06-04T09:47:57.489Z,77
2018-06-04T09:48:59.542Z,79
2018-06-04T09:50:01.986Z,79
2018-06-04T09:51:04.024Z,79
2018-06-04T09:52:06.081Z,77
2018-06-04T09:53:08.115Z,78
2018-06-04T09:54:10.230Z,78
2018-06-04T09:55:13.458Z,78
2018-06-04T09:56:15.503Z,78
2018-06-04T09:57:17.562Z,78
2018-06-04T09:58:19.614Z,78
2018-06-04T09:59:21.657Z,79
2018-06-04T10:00:24.177Z,78
2018-06-04T10:01:26.453Z,78
2018-06-04T10:02:28.752Z,79
2018-06-04T10:03:30.884Z,79
2018-06-04T10:04:33.295Z,78
2018-06-04T10:05:35.389Z,78
2018-06-04T10:06:37.837Z,77
2018-06-04T10:07:39.877Z,78
2018-06-04T10:08:41.920Z,77
2018-06-04T10:09:44.271Z,77
2018-06-04T10:10:46.315Z,78
2018-06-04T10:11:48.365Z,77
2018-06-04T10:12:50.373Z,76
2018-06-04T10:13:52.660Z,78
2018-06-04T10:14:54.662Z,77
2018-06-04T10:15:57.050Z,76
2018-06-04T10:16:59.056Z,76
2018-06-04T10:18:01.096Z,76
2018-06-04T10:19:03.091Z,76
2018-06-04T10:20:05.120Z,76
2018-06-04T10:21:07.552Z,76
2018-06-04T10:22:09.610Z,77
2018-06-04T10:23:11.653Z,78
2018-06-04T10:24:13.700Z,78
2018-06-04T10:25:16.037Z,75
2018-06-04T10:26:18.074Z,76
2018-06-04T10:27:20.116Z,77
2018-06-04T10:28:22.163Z,75
2018-06-04T10:29:24.213Z,76
2018-06-04T10:30:26.264Z,76
2018-06-04T10:31:28.506Z,77
2018-06-04T10:32:31.654Z,75
2018-06-04T10:33:34.226Z,75
2018-06-04T10:34:37.197Z,76
2018-06-04T10:35:40.299Z,75
2018-06-04T10:36:42.740Z,76
2018-06-04T10:37:44.835Z,75
2018-06-04T10:38:47.124Z,76
2018-06-04T10:39:49.219Z,77
2018-06-04T10:40:51.345Z,77
2018-06-04T10:41:53.400Z,78
2018-06-04T10:42:55.572Z,78
2018-06-04T10:43:57.679Z,77
2018-06-04T10:44:59.721Z,77
2018-06-04T10:46:01.854Z,77
2018-06-04T10:47:03.895Z,76
2018-06-04T10:48:06.130Z,77
2018-06-04T10:49:08.566Z,77
2018-06-04T10:50:10.729Z,78
2018-06-04T10:51:13.081Z,78
2018-06-04T10:52:15.204Z,76
2018-06-04T10:53:17.951Z,78
2018-06-04T10:54:19.956Z,78
2018-06-04T10:55:22.233Z,78
2018-06-04T10:56:24.244Z,77
2018-06-04T10:57:26.271Z,77
2018-06-04T10:58:28.340Z,77
2018-06-04T10:59:30.393Z,77
2018-06-04T11:00:32.410Z,78
2018-06-04T11:01:34.689Z,79
2018-06-04T11:02:37.390Z,79
2018-06-04T11:03:39.389Z,78
2018-06-04T11:04:41.404Z,77
2018-06-04T11:05:43.401Z,78
2018-06-04T11:06:45.683Z,77
2018-06-04T11:07:47.688Z,77
2018-06-04T11:08:49.703Z,77
2018-06-04T11:09:51.991Z,77
2018-06-04T11:10:54.013Z,78
2018-06-04T11:11:56.696Z,77
2018-06-04T11:12:58.704Z,76
2018-06-04T11:14:00.990Z,77
2018-06-04T11:15:03.273Z,77
2018-06-04T11:16:05.570Z,78
2018-06-04T11:17:07.877Z,79
2018-06-04T11:18:09.913Z,79
2018-06-04T11:19:11.917Z,77
2018-06-04T11:20:13.924Z,77
2018-06-04T11:21:15.952Z,78
2018-06-04T11:22:17.960Z,77
2018-06-04T11:23:19.960Z,78
2018-06-04T11:24:21.977Z,77
2018-06-04T11:25:23.985Z,79
2018-06-04T11:26:26.012Z,78
2018-06-04T11:27:28.396Z,79
2018-06-04T11:28:30.434Z,77
2018-06-04T11:29:32.438Z,78
2018-06-04T11:30:34.885Z,75
2018-06-04T11:31:36.891Z,75
2018-06-04T11:32:38.908Z,76
2018-06-04T11:33:40.913Z,75
2018-06-04T11:34:42.921Z,75
2018-06-04T11:35:44.926Z,74
2018-06-04T11:36:47.215Z,74
2018-06-04T11:37:49.208Z,76
2018-06-04T11:38:51.211Z,75
2018-06-04T11:39:53.226Z,75
2018-06-04T11:40:55.253Z,74
2018-06-04T11:41:57.249Z,75
2018-06-04T11:42:59.257Z,76
2018-06-04T11:44:01.268Z,76
2018-06-04T11:45:03.282Z,77
2018-06-04T11:46:05.856Z,78
2018-06-04T11:47:07.887Z,76
2018-06-04T11:48:09.908Z,75
2018-06-04T11:49:11.910Z,76
2018-06-04T11:50:13.925Z,75
2018-06-04T11:51:15.931Z,77
2018-06-04T11:52:17.953Z,76
2018-06-04T11:53:19.959Z,76
2018-06-04T11:54:21.965Z,76
2018-06-04T11:55:23.981Z,78
2018-06-04T11:56:26.459Z,77
2018-06-04T11:57:28.837Z,77
2018-06-04T11:58:31.534Z,76
2018-06-04T11:59:33.804Z,74
2018-06-04T12:00:35.819Z,75
2018-06-04T12:01:37.825Z,74
2018-06-04T12:02:40.164Z,75
2018-06-04T12:03:42.178Z,74
2018-06-04T12:04:44.187Z,73
2018-06-04T12:05:46.196Z,74
2018-06-04T12:06:48.190Z,74
2018-06-04T12:07:50.199Z,74
2018-06-04T12:08:52.796Z,73
2018-06-04T12:09:54.790Z,73
2018-06-04T12:10:56.800Z,72
2018-06-04T12:11:58.817Z,73
2018-06-04T12:13:00.827Z,74
2018-06-04T12:14:03.212Z,72
2018-06-04T12:15:05.222Z,72
2018-06-04T12:16:07.246Z,73
2018-06-04T12:17:09.272Z,73
2018-06-04T12:18:11.274Z,73
2018-06-04T12:19:13.584Z,73
2018-06-04T12:20:15.868Z,74
2018-06-04T12:21:17.866Z,73
2018-06-04T12:22:20.158Z,73
2018-06-04T12:23:22.165Z,75
2018-06-04T12:24:24.446Z,74
2018-06-04T12:25:26.828Z,74
2018-06-04T12:26:28.826Z,74
2018-06-04T12:27:30.842Z,73
2018-06-04T12:28:32.845Z,73
2018-06-04T12:29:34.847Z,74
2018-06-04T12:30:36.850Z,73
2018-06-04T12:31:38.854Z,72
2018-06-04T12:32:40.868Z,73
2018-06-04T12:33:42.868Z,73
2018-06-04T12:34:44.861Z,74
2018-06-04T12:35:47.154Z,73
2018-06-04T12:36:49.157Z,73
2018-06-04T12:37:51.447Z,74
2018-06-04T12:38:53.446Z,74
2018-06-04T12:39:55.452Z,75
2018-06-04T12:40:57.459Z,75
2018-06-04T12:41:59.448Z,75
2018-06-04T12:43:01.455Z,75
2018-06-04T12:44:03.739Z,74
2018-06-04T12:45:06.030Z,74
2018-06-04T12:46:08.033Z,75
2018-06-04T12:47:10.316Z,75
2018-06-04T12:48:12.319Z,74
2018-06-04T12:49:14.602Z,75
2018-06-04T12:50:16.600Z,75
2018-06-04T12:51:18.896Z,74
2018-06-04T12:52:20.901Z,75
2018-06-04T12:53:22.898Z,76
2018-06-04T12:54:25.293Z,76
2018-06-04T12:55:27.292Z,75
2018-06-04T12:56:29.295Z,76
2018-06-04T12:58:35.535Z,74
2018-06-04T12:59:37.817Z,77
2018-06-04T13:00:39.827Z,74
2018-06-04T13:01:41.815Z,75
2018-06-04T13:02:43.830Z,75
2018-06-04T13:03:45.833Z,75
2018-06-04T13:04:48.249Z,75
2018-06-04T13:05:50.535Z,76
2018-06-04T13:06:52.536Z,75
2018-06-04T13:07:54.821Z,75
2018-06-04T13:08:57.112Z,74
2018-06-04T13:09:59.392Z,75
2018-06-04T13:11:01.778Z,75
2018-06-04T13:12:03.792Z,75
2018-06-04T13:13:05.787Z,75
2018-06-04T13:14:07.792Z,75
2018-06-04T13:15:09.811Z,76
2018-06-04T13:16:12.091Z,76
2018-06-04T13:17:14.382Z,76
2018-06-04T13:18:16.380Z,75
2018-06-04T13:19:18.388Z,75
2018-06-04T13:20:20.693Z,75
2018-06-04T13:21:22.993Z,76
2018-06-04T13:22:24.991Z,75
2018-06-04T13:23:26.986Z,75
2018-06-04T13:24:28.998Z,75
2018-06-04T13:25:30.995Z,76
2018-06-04T13:26:33.002Z,75
2018-06-04T13:27:35.718Z,76
2018-06-04T13:28:37.712Z,76
2018-06-04T13:29:39.707Z,76
2018-06-04T13:30:41.705Z,76
2018-06-04T13:31:43.997Z,76
2018-06-04T13:32:46.005Z,77
2018-06-04T13:33:48.005Z,76
2018-06-04T13:34:50.014Z,76
2018-06-04T13:35:52.028Z,75
2018-06-04T13:36:54.024Z,75
2018-06-04T13:37:56.020Z,75
2018-06-04T13:38:58.022Z,75
2018-06-04T13:40:00.306Z,75
2018-06-04T13:41:02.317Z,76
2018-06-04T13:42:04.311Z,77
2018-06-04T13:43:06.313Z,75
2018-06-04T13:44:08.316Z,76
2018-06-04T13:45:10.611Z,76
2018-06-04T13:46:12.615Z,75
2018-06-04T13:47:14.617Z,75
2018-06-04T13:48:16.609Z,76
2018-06-04T13:49:18.611Z,74
2018-06-04T13:50:20.636Z,76
2018-06-04T13:51:22.606Z,76
2018-06-04T13:52:24.619Z,74
2018-06-04T13:53:26.623Z,77
2018-06-04T13:54:28.629Z,76
2018-06-04T13:55:30.629Z,77
2018-06-04T13:56:32.642Z,77
2018-06-04T13:57:34.640Z,76
2018-06-04T13:58:36.637Z,76
2018-06-04T13:59:38.645Z,77
2018-06-04T14:00:40.652Z,77
2018-06-04T14:01:42.654Z,77
2018-06-04T14:02:44.702Z,78
2018-06-04T14:03:46.994Z,78
2018-06-04T14:04:49.289Z,77
2018-06-04T14:05:51.283Z,77
2018-06-04T14:06:53.283Z,76
2018-06-04T14:07:55.288Z,77
2018-06-04T14:08:57.564Z,78
2018-06-04T14:09:59.853Z,76
2018-06-04T14:11:02.266Z,76
2018-06-04T14:12:04.267Z,77
2018-06-04T14:13:06.277Z,77
2018-06-04T14:14:08.269Z,77
2018-06-04T14:15:10.285Z,78
2018-06-04T14:16:12.664Z,77
2018-06-04T14:17:14.666Z,77
2018-06-04T14:18:16.666Z,78
2018-06-04T14:19:18.661Z,77
2018-06-04T14:20:20.668Z,77
2018-06-04T14:21:22.661Z,77
2018-06-04T14:22:24.660Z,77
2018-06-04T14:23:26.663Z,77
2018-06-04T14:24:28.680Z,77
2018-06-04T14:25:30.676Z,76
2018-06-04T14:26:33.053Z,77
2018-06-04T14:27:35.059Z,77
2018-06-04T14:28:37.051Z,77
2018-06-04T14:29:39.043Z,77
2018-06-04T14:30:41.050Z,76
2018-06-04T14:31:43.041Z,78
2018-06-04T14:32:45.333Z,77
2018-06-04T14:33:47.339Z,76
2018-06-04T14:34:50.013Z,77
2018-06-04T14:35:52.010Z,77
2018-06-04T14:36:54.021Z,76
2018-06-04T14:37:56.023Z,76
2018-06-04T14:38:58.068Z,78
2018-06-04T14:40:00.080Z,75
2018-06-04T14:41:02.379Z,76
2018-06-04T14:42:04.375Z,78
2018-06-04T14:43:06.393Z,76
2018-06-04T14:44:09.056Z,76
2018-06-04T14:45:11.058Z,76
2018-06-04T14:46:13.445Z,77
2018-06-04T14:47:16.078Z,76